sensor_id;sensor_type;location;lat;lon;timestamp;P1;durP1;ratioP1;P2;durP2;ratioP2
18512;SDS011;9385;48.380;9.744;2023-01-05T00:02:03;0.90;;;0.63;;
18512;SDS011;9385;48.380;9.744;2023-01-05T00:04:30;0.85;;;0.68;;
18512;SDS011;9385;48.380;9.744;2023-01-05T00:06:58;1.48;;;0.70;;
18512;SDS011;9385;48.380;9.744;2023-01-05T00:09:25;2.05;;;0.65;;
18512;SDS011;9385;48.380;9.744;2023-01-05T00:11:53;1.15;;;0.75;;
18512;SDS011;9385;48.380;9.744;2023-01-05T00:14:37;1.10;;;0.70;;
18512;SDS011;9385;48.380;9.744;2023-01-05T00:17:22;0.80;;;0.60;;
18512;SDS011;9385;48.380;9.744;2023-01-05T00:20:09;1.10;;;0.70;;
18512;SDS011;9385;48.380;9.744;2023-01-05T00:22:58;0.70;;;0.60;;
18512;SDS011;9385;48.380;9.744;2023-01-05T00:25:26;1.20;;;0.60;;
18512;SDS011;9385;48.380;9.744;2023-01-05T00:27:54;0.90;;;0.70;;
18512;SDS011;9385;48.380;9.744;2023-01-05T00:30:23;0.60;;;0.60;;
18512;SDS011;9385;48.380;9.744;2023-01-05T00:32:52;1.75;;;0.60;;
18512;SDS011;9385;48.380;9.744;2023-01-05T00:35:21;1.35;;;0.70;;
18512;SDS011;9385;48.380;9.744;2023-01-05T00:37:48;1.23;;;0.60;;
18512;SDS011;9385;48.380;9.744;2023-01-05T00:40:20;0.90;;;0.68;;
18512;SDS011;9385;48.380;9.744;2023-01-05T00:42:53;1.02;;;0.80;;
18512;SDS011;9385;48.380;9.744;2023-01-05T00:45:20;0.70;;;0.60;;
18512;SDS011;9385;48.380;9.744;2023-01-05T00:47:47;1.00;;;0.60;;
18512;SDS011;9385;48.380;9.744;2023-01-05T00:50:16;1.00;;;0.60;;
18512;SDS011;9385;48.380;9.744;2023-01-05T00:52:44;0.63;;;0.63;;
18512;SDS011;9385;48.380;9.744;2023-01-05T00:55:11;0.73;;;0.60;;
18512;SDS011;9385;48.380;9.744;2023-01-05T00:57:40;0.75;;;0.70;;
18512;SDS011;9385;48.380;9.744;2023-01-05T01:00:10;1.10;;;0.70;;
18512;SDS011;9385;48.380;9.744;2023-01-05T01:02:39;1.20;;;0.60;;
18512;SDS011;9385;48.380;9.744;2023-01-05T01:05:06;0.77;;;0.65;;
18512;SDS011;9385;48.380;9.744;2023-01-05T01:07:34;1.07;;;0.70;;
18512;SDS011;9385;48.380;9.744;2023-01-05T01:10:00;0.85;;;0.65;;
18512;SDS011;9385;48.380;9.744;2023-01-05T01:12:27;0.50;;;0.50;;
18512;SDS011;9385;48.380;9.744;2023-01-05T01:14:56;1.10;;;0.65;;
18512;SDS011;9385;48.380;9.744;2023-01-05T01:17:23;0.75;;;0.57;;
18512;SDS011;9385;48.380;9.744;2023-01-05T01:19:50;0.95;;;0.70;;
18512;SDS011;9385;48.380;9.744;2023-01-05T01:22:16;0.50;;;0.50;;
18512;SDS011;9385;48.380;9.744;2023-01-05T01:24:43;0.82;;;0.60;;
18512;SDS011;9385;48.380;9.744;2023-01-05T01:27:10;0.85;;;0.52;;
18512;SDS011;9385;48.380;9.744;2023-01-05T01:29:37;0.60;;;0.50;;
18512;SDS011;9385;48.380;9.744;2023-01-05T01:32:05;1.20;;;0.50;;
18512;SDS011;9385;48.380;9.744;2023-01-05T01:34:32;0.95;;;0.55;;
18512;SDS011;9385;48.380;9.744;2023-01-05T01:36:59;0.82;;;0.50;;
18512;SDS011;9385;48.380;9.744;2023-01-05T01:39:26;0.50;;;0.50;;
18512;SDS011;9385;48.380;9.744;2023-01-05T01:41:52;0.50;;;0.43;;
18512;SDS011;9385;48.380;9.744;2023-01-05T01:47:23;1.40;;;0.50;;
18512;SDS011;9385;48.380;9.744;2023-01-05T01:49:56;0.88;;;0.40;;
18512;SDS011;9385;48.380;9.744;2023-01-05T01:52:24;0.70;;;0.32;;
18512;SDS011;9385;48.380;9.744;2023-01-05T01:54:54;0.57;;;0.50;;
18512;SDS011;9385;48.380;9.744;2023-01-05T01:57:21;1.15;;;0.40;;
18512;SDS011;9385;48.380;9.744;2023-01-05T01:59:51;0.75;;;0.40;;
18512;SDS011;9385;48.380;9.744;2023-01-05T02:02:18;0.52;;;0.30;;
18512;SDS011;9385;48.380;9.744;2023-01-05T02:04:48;0.73;;;0.40;;
18512;SDS011;9385;48.380;9.744;2023-01-05T02:07:15;0.50;;;0.38;;
18512;SDS011;9385;48.380;9.744;2023-01-05T02:09:42;0.40;;;0.40;;
18512;SDS011;9385;48.380;9.744;2023-01-05T02:12:14;0.30;;;0.30;;
18512;SDS011;9385;48.380;9.744;2023-01-05T02:14:52;0.88;;;0.43;;
18512;SDS011;9385;48.380;9.744;2023-01-05T02:17:30;0.60;;;0.40;;
18512;SDS011;9385;48.380;9.744;2023-01-05T02:20:11;0.50;;;0.30;;
18512;SDS011;9385;48.380;9.744;2023-01-05T02:22:59;0.98;;;0.22;;
18512;SDS011;9385;48.380;9.744;2023-01-05T02:28:50;1.60;;;0.30;;
18512;SDS011;9385;48.380;9.744;2023-01-05T02:31:40;0.60;;;0.30;;
18512;SDS011;9385;48.380;9.744;2023-01-05T02:34:13;0.40;;;0.30;;
18512;SDS011;9385;48.380;9.744;2023-01-05T02:36:47;0.17;;;0.17;;
18512;SDS011;9385;48.380;9.744;2023-01-05T02:39:19;0.70;;;0.20;;
18512;SDS011;9385;48.380;9.744;2023-01-05T02:41:54;0.20;;;0.20;;
18512;SDS011;9385;48.380;9.744;2023-01-05T02:44:23;0.40;;;0.20;;
18512;SDS011;9385;48.380;9.744;2023-01-05T02:46:59;1.10;;;0.30;;
18512;SDS011;9385;48.380;9.744;2023-01-05T02:49:27;0.65;;;0.20;;
18512;SDS011;9385;48.380;9.744;2023-01-05T02:51:56;0.47;;;0.22;;
18512;SDS011;9385;48.380;9.744;2023-01-05T02:54:26;0.70;;;0.50;;
18512;SDS011;9385;48.380;9.744;2023-01-05T02:56:57;0.93;;;0.50;;
18512;SDS011;9385;48.380;9.744;2023-01-05T02:59:29;0.30;;;0.20;;
18512;SDS011;9385;48.380;9.744;2023-01-05T03:02:03;0.30;;;0.30;;
18512;SDS011;9385;48.380;9.744;2023-01-05T03:04:32;0.80;;;0.40;;
18512;SDS011;9385;48.380;9.744;2023-01-05T03:07:04;0.50;;;0.30;;
18512;SDS011;9385;48.380;9.744;2023-01-05T03:09:34;0.22;;;0.20;;
18512;SDS011;9385;48.380;9.744;2023-01-05T03:12:05;0.90;;;0.40;;
18512;SDS011;9385;48.380;9.744;2023-01-05T03:14:56;1.30;;;0.20;;
18512;SDS011;9385;48.380;9.744;2023-01-05T03:17:28;2.20;;;0.50;;
18512;SDS011;9385;48.380;9.744;2023-01-05T03:19:58;1.10;;;0.50;;
18512;SDS011;9385;48.380;9.744;2023-01-05T03:22:26;0.30;;;0.22;;
18512;SDS011;9385;48.380;9.744;2023-01-05T03:25:12;0.35;;;0.22;;
18512;SDS011;9385;48.380;9.744;2023-01-05T03:28:00;0.20;;;0.17;;
18512;SDS011;9385;48.380;9.744;2023-01-05T03:30:47;0.20;;;0.20;;
18512;SDS011;9385;48.380;9.744;2023-01-05T03:33:42;0.10;;;0.10;;
18512;SDS011;9385;48.380;9.744;2023-01-05T03:36:31;0.75;;;0.10;;
18512;SDS011;9385;48.380;9.744;2023-01-05T03:39:03;0.17;;;0.10;;
18512;SDS011;9385;48.380;9.744;2023-01-05T03:41:32;0.80;;;0.20;;
18512;SDS011;9385;48.380;9.744;2023-01-05T03:43:59;0.40;;;0.25;;
18512;SDS011;9385;48.380;9.744;2023-01-05T03:46:26;0.40;;;0.40;;
18512;SDS011;9385;48.380;9.744;2023-01-05T03:48:54;0.50;;;0.40;;
18512;SDS011;9385;48.380;9.744;2023-01-05T03:51:21;0.80;;;0.30;;
18512;SDS011;9385;48.380;9.744;2023-01-05T03:53:48;0.25;;;0.13;;
18512;SDS011;9385;48.380;9.744;2023-01-05T03:56:15;0.10;;;0.10;;
18512;SDS011;9385;48.380;9.744;2023-01-05T03:58:42;0.10;;;0.10;;
18512;SDS011;9385;48.380;9.744;2023-01-05T04:01:08;1.25;;;0.30;;
18512;SDS011;9385;48.380;9.744;2023-01-05T04:03:35;0.57;;;0.20;;
18512;SDS011;9385;48.380;9.744;2023-01-05T04:06:04;0.80;;;0.22;;
18512;SDS011;9385;48.380;9.744;2023-01-05T04:08:31;0.28;;;0.17;;
18512;SDS011;9385;48.380;9.744;2023-01-05T04:11:08;0.20;;;0.20;;
18512;SDS011;9385;48.380;9.744;2023-01-05T04:13:36;0.40;;;0.15;;
18512;SDS011;9385;48.380;9.744;2023-01-05T04:16:03;0.47;;;0.10;;
18512;SDS011;9385;48.380;9.744;2023-01-05T04:18:30;0.60;;;0.30;;
18512;SDS011;9385;48.380;9.744;2023-01-05T04:20:57;0.10;;;0.10;;
18512;SDS011;9385;48.380;9.744;2023-01-05T04:23:25;0.60;;;0.20;;
18512;SDS011;9385;48.380;9.744;2023-01-05T04:25:52;0.40;;;0.20;;
18512;SDS011;9385;48.380;9.744;2023-01-05T04:28:19;0.52;;;0.30;;
18512;SDS011;9385;48.380;9.744;2023-01-05T04:30:48;0.90;;;0.30;;
18512;SDS011;9385;48.380;9.744;2023-01-05T04:33:16;0.80;;;0.30;;
18512;SDS011;9385;48.380;9.744;2023-01-05T04:35:44;0.40;;;0.40;;
18512;SDS011;9385;48.380;9.744;2023-01-05T04:38:11;0.88;;;0.30;;
18512;SDS011;9385;48.380;9.744;2023-01-05T04:40:39;0.80;;;0.30;;
18512;SDS011;9385;48.380;9.744;2023-01-05T04:43:06;0.88;;;0.40;;
18512;SDS011;9385;48.380;9.744;2023-01-05T04:45:33;0.93;;;0.47;;
18512;SDS011;9385;48.380;9.744;2023-01-05T04:48:00;0.50;;;0.30;;
18512;SDS011;9385;48.380;9.744;2023-01-05T04:50:27;1.10;;;0.20;;
18512;SDS011;9385;48.380;9.744;2023-01-05T04:52:54;0.20;;;0.20;;
18512;SDS011;9385;48.380;9.744;2023-01-05T04:55:20;0.68;;;0.20;;
18512;SDS011;9385;48.380;9.744;2023-01-05T04:57:49;0.35;;;0.10;;
18512;SDS011;9385;48.380;9.744;2023-01-05T05:00:16;1.30;;;0.10;;
18512;SDS011;9385;48.380;9.744;2023-01-05T05:02:42;1.00;;;0.20;;
18512;SDS011;9385;48.380;9.744;2023-01-05T05:05:09;0.40;;;0.20;;
18512;SDS011;9385;48.380;9.744;2023-01-05T05:07:36;1.83;;;0.20;;
18512;SDS011;9385;48.380;9.744;2023-01-05T05:10:03;2.15;;;0.43;;
18512;SDS011;9385;48.380;9.744;2023-01-05T05:12:31;1.00;;;0.20;;
18512;SDS011;9385;48.380;9.744;2023-01-05T05:14:59;0.30;;;0.20;;
18512;SDS011;9385;48.380;9.744;2023-01-05T05:17:26;0.70;;;0.20;;
18512;SDS011;9385;48.380;9.744;2023-01-05T05:19:52;0.30;;;0.20;;
18512;SDS011;9385;48.380;9.744;2023-01-05T05:22:19;0.77;;;0.20;;
18512;SDS011;9385;48.380;9.744;2023-01-05T05:24:46;2.70;;;0.20;;
18512;SDS011;9385;48.380;9.744;2023-01-05T05:27:13;1.92;;;0.30;;
18512;SDS011;9385;48.380;9.744;2023-01-05T05:29:39;0.55;;;0.40;;
18512;SDS011;9385;48.380;9.744;2023-01-05T05:32:08;1.10;;;0.60;;
18512;SDS011;9385;48.380;9.744;2023-01-05T05:34:34;1.27;;;0.50;;
18512;SDS011;9385;48.380;9.744;2023-01-05T05:37:01;2.10;;;0.30;;
18512;SDS011;9385;48.380;9.744;2023-01-05T05:39:28;0.75;;;0.30;;
18512;SDS011;9385;48.380;9.744;2023-01-05T05:41:55;0.40;;;0.20;;
18512;SDS011;9385;48.380;9.744;2023-01-05T05:44:22;0.32;;;0.30;;
18512;SDS011;9385;48.380;9.744;2023-01-05T05:46:49;0.60;;;0.40;;
18512;SDS011;9385;48.380;9.744;2023-01-05T05:49:17;0.45;;;0.30;;
18512;SDS011;9385;48.380;9.744;2023-01-05T05:51:44;0.43;;;0.30;;
18512;SDS011;9385;48.380;9.744;2023-01-05T05:54:11;0.40;;;0.40;;
18512;SDS011;9385;48.380;9.744;2023-01-05T05:56:38;0.38;;;0.28;;
18512;SDS011;9385;48.380;9.744;2023-01-05T05:59:05;0.80;;;0.40;;
18512;SDS011;9385;48.380;9.744;2023-01-05T06:01:32;0.40;;;0.40;;
18512;SDS011;9385;48.380;9.744;2023-01-05T06:03:58;0.63;;;0.30;;
18512;SDS011;9385;48.380;9.744;2023-01-05T06:06:27;0.65;;;0.40;;
18512;SDS011;9385;48.380;9.744;2023-01-05T06:08:53;0.82;;;0.60;;
18512;SDS011;9385;48.380;9.744;2023-01-05T06:11:20;0.65;;;0.50;;
18512;SDS011;9385;48.380;9.744;2023-01-05T06:13:47;1.20;;;0.40;;
18512;SDS011;9385;48.380;9.744;2023-01-05T06:16:14;1.40;;;0.40;;
18512;SDS011;9385;48.380;9.744;2023-01-05T06:18:41;1.05;;;0.60;;
18512;SDS011;9385;48.380;9.744;2023-01-05T06:21:08;1.83;;;0.50;;
18512;SDS011;9385;48.380;9.744;2023-01-05T06:23:36;1.40;;;0.30;;
18512;SDS011;9385;48.380;9.744;2023-01-05T06:26:03;1.58;;;0.40;;
18512;SDS011;9385;48.380;9.744;2023-01-05T06:28:29;1.05;;;0.50;;
18512;SDS011;9385;48.380;9.744;2023-01-05T06:30:56;0.40;;;0.40;;
18512;SDS011;9385;48.380;9.744;2023-01-05T06:33:23;1.33;;;0.47;;
18512;SDS011;9385;48.380;9.744;2023-01-05T06:35:50;0.50;;;0.40;;
18512;SDS011;9385;48.380;9.744;2023-01-05T06:38:17;1.00;;;0.47;;
18512;SDS011;9385;48.380;9.744;2023-01-05T06:40:46;0.60;;;0.30;;
18512;SDS011;9385;48.380;9.744;2023-01-05T06:43:13;0.30;;;0.30;;
18512;SDS011;9385;48.380;9.744;2023-01-05T06:45:40;0.60;;;0.40;;
18512;SDS011;9385;48.380;9.744;2023-01-05T06:48:07;0.95;;;0.40;;
18512;SDS011;9385;48.380;9.744;2023-01-05T06:50:33;0.82;;;0.38;;
18512;SDS011;9385;48.380;9.744;2023-01-05T06:53:00;1.00;;;0.40;;
18512;SDS011;9385;48.380;9.744;2023-01-05T06:55:27;0.80;;;0.40;;
18512;SDS011;9385;48.380;9.744;2023-01-05T06:57:56;0.55;;;0.25;;
18512;SDS011;9385;48.380;9.744;2023-01-05T07:00:23;0.80;;;0.40;;
18512;SDS011;9385;48.380;9.744;2023-01-05T07:02:49;0.73;;;0.30;;
18512;SDS011;9385;48.380;9.744;2023-01-05T07:05:17;0.40;;;0.30;;
18512;SDS011;9385;48.380;9.744;2023-01-05T07:07:44;0.60;;;0.23;;
18512;SDS011;9385;48.380;9.744;2023-01-05T07:10:11;0.47;;;0.30;;
18512;SDS011;9385;48.380;9.744;2023-01-05T07:12:37;0.30;;;0.30;;
18512;SDS011;9385;48.380;9.744;2023-01-05T07:15:06;0.52;;;0.20;;
18512;SDS011;9385;48.380;9.744;2023-01-05T07:17:34;0.47;;;0.28;;
18512;SDS011;9385;48.380;9.744;2023-01-05T07:20:01;0.40;;;0.30;;
18512;SDS011;9385;48.380;9.744;2023-01-05T07:22:28;0.80;;;0.30;;
18512;SDS011;9385;48.380;9.744;2023-01-05T07:24:55;1.70;;;0.30;;
18512;SDS011;9385;48.380;9.744;2023-01-05T07:27:22;0.63;;;0.20;;
18512;SDS011;9385;48.380;9.744;2023-01-05T07:29:49;0.95;;;0.40;;
18512;SDS011;9385;48.380;9.744;2023-01-05T07:32:18;0.40;;;0.20;;
18512;SDS011;9385;48.380;9.744;2023-01-05T07:34:45;0.20;;;0.20;;
18512;SDS011;9385;48.380;9.744;2023-01-05T07:37:11;0.90;;;0.40;;
18512;SDS011;9385;48.380;9.744;2023-01-05T07:39:38;1.70;;;0.60;;
18512;SDS011;9385;48.380;9.744;2023-01-05T07:42:05;0.30;;;0.30;;
18512;SDS011;9385;48.380;9.744;2023-01-05T07:44:32;3.50;;;0.32;;
18512;SDS011;9385;48.380;9.744;2023-01-05T07:46:59;1.80;;;0.30;;
18512;SDS011;9385;48.380;9.744;2023-01-05T07:49:27;0.50;;;0.30;;
18512;SDS011;9385;48.380;9.744;2023-01-05T07:51:54;1.03;;;0.80;;
18512;SDS011;9385;48.380;9.744;2023-01-05T07:54:21;22.65;;;14.13;;
18512;SDS011;9385;48.380;9.744;2023-01-05T07:56:48;4.10;;;2.10;;
18512;SDS011;9385;48.380;9.744;2023-01-05T07:59:15;2.45;;;1.02;;
18512;SDS011;9385;48.380;9.744;2023-01-05T08:01:42;0.60;;;0.50;;
18512;SDS011;9385;48.380;9.744;2023-01-05T08:04:09;1.20;;;0.90;;
18512;SDS011;9385;48.380;9.744;2023-01-05T08:06:37;1.30;;;0.90;;
18512;SDS011;9385;48.380;9.744;2023-01-05T08:09:04;3.80;;;2.85;;
18512;SDS011;9385;48.380;9.744;2023-01-05T08:11:45;8.65;;;5.47;;
18512;SDS011;9385;48.380;9.744;2023-01-05T08:14:12;1.30;;;1.10;;
18512;SDS011;9385;48.380;9.744;2023-01-05T08:16:38;2.20;;;1.10;;
18512;SDS011;9385;48.380;9.744;2023-01-05T08:19:07;0.50;;;0.50;;
18512;SDS011;9385;48.380;9.744;2023-01-05T08:21:34;0.98;;;0.55;;
18512;SDS011;9385;48.380;9.744;2023-01-05T08:24:02;0.70;;;0.40;;
18512;SDS011;9385;48.380;9.744;2023-01-05T08:26:29;1.70;;;0.70;;
18512;SDS011;9385;48.380;9.744;2023-01-05T08:28:56;1.70;;;0.50;;
18512;SDS011;9385;48.380;9.744;2023-01-05T08:31:24;0.82;;;0.63;;
18512;SDS011;9385;48.380;9.744;2023-01-05T08:33:53;1.30;;;0.70;;
18512;SDS011;9385;48.380;9.744;2023-01-05T08:36:22;1.30;;;0.70;;
18512;SDS011;9385;48.380;9.744;2023-01-05T08:38:49;1.50;;;0.70;;
18512;SDS011;9385;48.380;9.744;2023-01-05T08:41:19;2.13;;;0.90;;
18512;SDS011;9385;48.380;9.744;2023-01-05T08:43:48;1.05;;;0.80;;
18512;SDS011;9385;48.380;9.744;2023-01-05T08:46:15;0.80;;;0.68;;
18512;SDS011;9385;48.380;9.744;2023-01-05T08:48:42;1.48;;;0.68;;
18512;SDS011;9385;48.380;9.744;2023-01-05T08:51:09;1.50;;;0.40;;
18512;SDS011;9385;48.380;9.744;2023-01-05T08:53:36;1.27;;;0.50;;
18512;SDS011;9385;48.380;9.744;2023-01-05T08:56:03;1.45;;;0.52;;
18512;SDS011;9385;48.380;9.744;2023-01-05T08:58:31;1.60;;;1.00;;
18512;SDS011;9385;48.380;9.744;2023-01-05T09:00:58;1.20;;;0.90;;
18512;SDS011;9385;48.380;9.744;2023-01-05T09:03:25;1.10;;;0.80;;
18512;SDS011;9385;48.380;9.744;2023-01-05T09:05:52;1.15;;;0.70;;
18512;SDS011;9385;48.380;9.744;2023-01-05T09:08:23;2.00;;;0.70;;
18512;SDS011;9385;48.380;9.744;2023-01-05T09:10:50;1.58;;;0.88;;
18512;SDS011;9385;48.380;9.744;2023-01-05T09:13:16;3.30;;;1.40;;
18512;SDS011;9385;48.380;9.744;2023-01-05T09:15:44;7.68;;;4.45;;
18512;SDS011;9385;48.380;9.744;2023-01-05T09:18:11;1.80;;;0.60;;
18512;SDS011;9385;48.380;9.744;2023-01-05T09:20:38;1.42;;;0.90;;
18512;SDS011;9385;48.380;9.744;2023-01-05T09:23:05;1.70;;;0.70;;
18512;SDS011;9385;48.380;9.744;2023-01-05T09:25:32;0.80;;;0.50;;
18512;SDS011;9385;48.380;9.744;2023-01-05T09:28:00;2.20;;;0.70;;
18512;SDS011;9385;48.380;9.744;2023-01-05T09:30:27;0.80;;;0.40;;
18512;SDS011;9385;48.380;9.744;2023-01-05T09:32:55;2.20;;;0.70;;
18512;SDS011;9385;48.380;9.744;2023-01-05T09:35:22;1.00;;;0.70;;
18512;SDS011;9385;48.380;9.744;2023-01-05T09:37:50;1.13;;;0.57;;
18512;SDS011;9385;48.380;9.744;2023-01-05T09:40:17;1.02;;;0.47;;
18512;SDS011;9385;48.380;9.744;2023-01-05T09:42:44;1.60;;;0.52;;
18512;SDS011;9385;48.380;9.744;2023-01-05T09:45:23;2.08;;;0.50;;
18512;SDS011;9385;48.380;9.744;2023-01-05T09:47:52;1.73;;;0.80;;
18512;SDS011;9385;48.380;9.744;2023-01-05T09:50:24;1.13;;;0.80;;
18512;SDS011;9385;48.380;9.744;2023-01-05T09:52:55;1.15;;;0.60;;
18512;SDS011;9385;48.380;9.744;2023-01-05T09:55:24;2.40;;;0.80;;
18512;SDS011;9385;48.380;9.744;2023-01-05T09:57:56;1.80;;;0.60;;
18512;SDS011;9385;48.380;9.744;2023-01-05T10:00:25;1.40;;;0.77;;
18512;SDS011;9385;48.380;9.744;2023-01-05T10:02:54;0.70;;;0.60;;
18512;SDS011;9385;48.380;9.744;2023-01-05T10:05:26;1.60;;;0.70;;
18512;SDS011;9385;48.380;9.744;2023-01-05T10:07:56;1.65;;;1.00;;
18512;SDS011;9385;48.380;9.744;2023-01-05T10:10:30;1.48;;;0.88;;
18512;SDS011;9385;48.380;9.744;2023-01-05T10:13:07;2.28;;;1.20;;
18512;SDS011;9385;48.380;9.744;2023-01-05T10:15:44;1.27;;;0.70;;
18512;SDS011;9385;48.380;9.744;2023-01-05T10:18:17;0.93;;;0.60;;
18512;SDS011;9385;48.380;9.744;2023-01-05T10:20:50;0.88;;;0.52;;
18512;SDS011;9385;48.380;9.744;2023-01-05T10:23:32;2.88;;;0.90;;
18512;SDS011;9385;48.380;9.744;2023-01-05T10:26:13;1.63;;;0.60;;
18512;SDS011;9385;48.380;9.744;2023-01-05T10:28:46;4.22;;;2.10;;
18512;SDS011;9385;48.380;9.744;2023-01-05T10:31:21;1.60;;;0.80;;
18512;SDS011;9385;48.380;9.744;2023-01-05T10:33:51;1.80;;;0.80;;
18512;SDS011;9385;48.380;9.744;2023-01-05T10:36:32;1.70;;;0.55;;
18512;SDS011;9385;48.380;9.744;2023-01-05T10:39:09;1.75;;;0.90;;
18512;SDS011;9385;48.380;9.744;2023-01-05T10:41:44;1.30;;;0.88;;
18512;SDS011;9385;48.380;9.744;2023-01-05T10:47:15;2.05;;;0.98;;
18512;SDS011;9385;48.380;9.744;2023-01-05T10:49:44;1.10;;;0.70;;
18512;SDS011;9385;48.380;9.744;2023-01-05T10:52:12;2.47;;;1.30;;
18512;SDS011;9385;48.380;9.744;2023-01-05T10:54:42;3.03;;;2.10;;
18512;SDS011;9385;48.380;9.744;2023-01-05T11:00:01;4.05;;;3.05;;
18512;SDS011;9385;48.380;9.744;2023-01-05T11:02:30;1.23;;;0.70;;
18512;SDS011;9385;48.380;9.744;2023-01-05T11:05:03;9.70;;;1.33;;
18512;SDS011;9385;48.380;9.744;2023-01-05T11:07:33;6.05;;;4.05;;
18512;SDS011;9385;48.380;9.744;2023-01-05T11:10:20;3.70;;;2.30;;
18512;SDS011;9385;48.380;9.744;2023-01-05T11:12:50;1.10;;;0.50;;
18512;SDS011;9385;48.380;9.744;2023-01-05T11:15:19;1.70;;;0.60;;
18512;SDS011;9385;48.380;9.744;2023-01-05T11:17:46;1.80;;;0.57;;
18512;SDS011;9385;48.380;9.744;2023-01-05T11:20:16;1.77;;;0.60;;
18512;SDS011;9385;48.380;9.744;2023-01-05T11:22:43;0.97;;;0.53;;
18512;SDS011;9385;48.380;9.744;2023-01-05T11:25:21;1.27;;;0.68;;
18512;SDS011;9385;48.380;9.744;2023-01-05T11:28:03;1.40;;;0.60;;
18512;SDS011;9385;48.380;9.744;2023-01-05T11:30:44;1.83;;;0.60;;
18512;SDS011;9385;48.380;9.744;2023-01-05T11:33:23;0.60;;;0.50;;
18512;SDS011;9385;48.380;9.744;2023-01-05T11:35:53;0.87;;;0.70;;
18512;SDS011;9385;48.380;9.744;2023-01-05T11:38:22;1.80;;;0.90;;
18512;SDS011;9385;48.380;9.744;2023-01-05T11:40:50;3.70;;;1.67;;
18512;SDS011;9385;48.380;9.744;2023-01-05T11:43:18;23.35;;;10.23;;
18512;SDS011;9385;48.380;9.744;2023-01-05T11:45:47;19.50;;;8.43;;
18512;SDS011;9385;48.380;9.744;2023-01-05T11:48:17;4.65;;;2.45;;
18512;SDS011;9385;48.380;9.744;2023-01-05T11:50:48;6.10;;;3.63;;
18512;SDS011;9385;48.380;9.744;2023-01-05T11:53:24;8.23;;;3.55;;
18512;SDS011;9385;48.380;9.744;2023-01-05T11:56:02;4.35;;;1.60;;
18512;SDS011;9385;48.380;9.744;2023-01-05T11:58:31;2.87;;;1.20;;
18512;SDS011;9385;48.380;9.744;2023-01-05T12:01:16;2.33;;;1.08;;
18512;SDS011;9385;48.380;9.744;2023-01-05T12:04:37;4.00;;;1.08;;
18512;SDS011;9385;48.380;9.744;2023-01-05T12:07:22;4.03;;;1.10;;
18512;SDS011;9385;48.380;9.744;2023-01-05T12:09:58;3.60;;;1.25;;
18512;SDS011;9385;48.380;9.744;2023-01-05T12:12:42;3.63;;;1.10;;
18512;SDS011;9385;48.380;9.744;2023-01-05T12:15:27;3.22;;;1.23;;
18512;SDS011;9385;48.380;9.744;2023-01-05T12:18:09;3.20;;;1.10;;
18512;SDS011;9385;48.380;9.744;2023-01-05T12:20:54;3.75;;;1.27;;
18512;SDS011;9385;48.380;9.744;2023-01-05T12:23:33;3.40;;;1.15;;
18512;SDS011;9385;48.380;9.744;2023-01-05T12:26:14;4.05;;;2.00;;
18512;SDS011;9385;48.380;9.744;2023-01-05T12:29:02;3.20;;;1.20;;
18512;SDS011;9385;48.380;9.744;2023-01-05T12:31:41;3.42;;;1.10;;
18512;SDS011;9385;48.380;9.744;2023-01-05T12:37:23;5.60;;;1.48;;
18512;SDS011;9385;48.380;9.744;2023-01-05T12:40:02;3.55;;;1.40;;
18512;SDS011;9385;48.380;9.744;2023-01-05T12:42:49;3.63;;;1.17;;
18512;SDS011;9385;48.380;9.744;2023-01-05T12:45:31;3.72;;;1.33;;
18512;SDS011;9385;48.380;9.744;2023-01-05T12:48:21;4.35;;;1.40;;
18512;SDS011;9385;48.380;9.744;2023-01-05T12:50:51;3.97;;;1.52;;
18512;SDS011;9385;48.380;9.744;2023-01-05T12:53:31;4.60;;;1.42;;
18512;SDS011;9385;48.380;9.744;2023-01-05T12:56:08;4.90;;;1.23;;
18512;SDS011;9385;48.380;9.744;2023-01-05T12:58:47;3.53;;;1.40;;
18512;SDS011;9385;48.380;9.744;2023-01-05T13:01:33;4.10;;;1.20;;
18512;SDS011;9385;48.380;9.744;2023-01-05T13:04:09;4.47;;;1.88;;
18512;SDS011;9385;48.380;9.744;2023-01-05T13:06:45;4.22;;;1.17;;
18512;SDS011;9385;48.380;9.744;2023-01-05T13:09:17;3.75;;;1.30;;
18512;SDS011;9385;48.380;9.744;2023-01-05T13:11:48;4.28;;;1.10;;
18512;SDS011;9385;48.380;9.744;2023-01-05T13:14:22;4.22;;;1.20;;
18512;SDS011;9385;48.380;9.744;2023-01-05T13:16:53;4.40;;;1.23;;
18512;SDS011;9385;48.380;9.744;2023-01-05T13:19:25;3.85;;;1.10;;
18512;SDS011;9385;48.380;9.744;2023-01-05T13:21:56;4.75;;;1.17;;
18512;SDS011;9385;48.380;9.744;2023-01-05T13:24:26;5.20;;;1.70;;
18512;SDS011;9385;48.380;9.744;2023-01-05T13:26:57;5.40;;;1.48;;
18512;SDS011;9385;48.380;9.744;2023-01-05T13:29:28;5.25;;;1.38;;
18512;SDS011;9385;48.380;9.744;2023-01-05T13:38:09;5.70;;;1.58;;
18512;SDS011;9385;48.380;9.744;2023-01-05T13:41:00;6.43;;;1.40;;
18512;SDS011;9385;48.380;9.744;2023-01-05T13:43:43;4.22;;;1.30;;
18512;SDS011;9385;48.380;9.744;2023-01-05T13:46:42;3.75;;;1.30;;
18512;SDS011;9385;48.380;9.744;2023-01-05T13:52:25;5.15;;;1.20;;
18512;SDS011;9385;48.380;9.744;2023-01-05T13:55:02;4.53;;;1.67;;
18512;SDS011;9385;48.380;9.744;2023-01-05T13:57:36;5.18;;;1.70;;
18512;SDS011;9385;48.380;9.744;2023-01-05T14:00:06;5.53;;;1.60;;
18512;SDS011;9385;48.380;9.744;2023-01-05T14:02:52;7.07;;;1.55;;
18512;SDS011;9385;48.380;9.744;2023-01-05T14:05:32;4.85;;;1.20;;
18512;SDS011;9385;48.380;9.744;2023-01-05T14:08:16;5.55;;;1.33;;
18512;SDS011;9385;48.380;9.744;2023-01-05T14:13:39;5.27;;;1.50;;
18512;SDS011;9385;48.380;9.744;2023-01-05T14:19:18;6.33;;;1.70;;
18512;SDS011;9385;48.380;9.744;2023-01-05T14:22:00;6.80;;;1.40;;
18512;SDS011;9385;48.380;9.744;2023-01-05T14:24:45;5.57;;;1.40;;
18512;SDS011;9385;48.380;9.744;2023-01-05T14:27:13;6.25;;;1.17;;
18512;SDS011;9385;48.380;9.744;2023-01-05T14:32:51;4.53;;;1.10;;
18512;SDS011;9385;48.380;9.744;2023-01-05T14:35:24;5.22;;;1.45;;
18512;SDS011;9385;48.380;9.744;2023-01-05T14:37:56;9.60;;;1.67;;
18512;SDS011;9385;48.380;9.744;2023-01-05T14:40:33;6.60;;;1.10;;
18512;SDS011;9385;48.380;9.744;2023-01-05T14:43:03;4.90;;;1.42;;
18512;SDS011;9385;48.380;9.744;2023-01-05T14:45:45;6.45;;;1.20;;
18512;SDS011;9385;48.380;9.744;2023-01-05T14:48:26;4.77;;;1.10;;
18512;SDS011;9385;48.380;9.744;2023-01-05T14:53:53;3.22;;;1.00;;
18512;SDS011;9385;48.380;9.744;2023-01-05T14:56:23;4.43;;;1.45;;
18512;SDS011;9385;48.380;9.744;2023-01-05T14:58:56;4.43;;;1.23;;
18512;SDS011;9385;48.380;9.744;2023-01-05T15:01:37;5.65;;;1.50;;
18512;SDS011;9385;48.380;9.744;2023-01-05T15:04:12;7.47;;;1.80;;
18512;SDS011;9385;48.380;9.744;2023-01-05T15:06:48;5.60;;;1.67;;
18512;SDS011;9385;48.380;9.744;2023-01-05T15:09:35;6.10;;;1.20;;
18512;SDS011;9385;48.380;9.744;2023-01-05T15:12:15;5.22;;;1.30;;
18512;SDS011;9385;48.380;9.744;2023-01-05T15:14:58;4.63;;;1.40;;
18512;SDS011;9385;48.380;9.744;2023-01-05T15:17:48;6.00;;;1.48;;
18512;SDS011;9385;48.380;9.744;2023-01-05T15:23:41;7.53;;;1.77;;
18512;SDS011;9385;48.380;9.744;2023-01-05T15:29:26;6.53;;;1.70;;
18512;SDS011;9385;48.380;9.744;2023-01-05T15:32:09;4.60;;;1.55;;
18512;SDS011;9385;48.380;9.744;2023-01-05T15:34:41;7.97;;;2.53;;
18512;SDS011;9385;48.380;9.744;2023-01-05T15:37:11;5.22;;;1.30;;
18512;SDS011;9385;48.380;9.744;2023-01-05T15:39:47;7.90;;;2.00;;
18512;SDS011;9385;48.380;9.744;2023-01-05T15:42:17;4.57;;;1.70;;
18512;SDS011;9385;48.380;9.744;2023-01-05T15:44:48;8.02;;;1.75;;
18512;SDS011;9385;48.380;9.744;2023-01-05T15:47:17;5.53;;;1.98;;
18512;SDS011;9385;48.380;9.744;2023-01-05T15:49:45;6.40;;;2.30;;
18512;SDS011;9385;48.380;9.744;2023-01-05T15:52:16;8.37;;;3.63;;
18512;SDS011;9385;48.380;9.744;2023-01-05T15:54:56;9.82;;;4.88;;
18512;SDS011;9385;48.380;9.744;2023-01-05T15:57:25;10.63;;;4.20;;
18512;SDS011;9385;48.380;9.744;2023-01-05T15:59:52;10.57;;;4.07;;
18512;SDS011;9385;48.380;9.744;2023-01-05T16:02:21;8.75;;;3.35;;
18512;SDS011;9385;48.380;9.744;2023-01-05T16:05:08;10.60;;;3.27;;
18512;SDS011;9385;48.380;9.744;2023-01-05T16:07:39;11.27;;;4.15;;
18512;SDS011;9385;48.380;9.744;2023-01-05T16:10:15;14.85;;;4.85;;